sensor_id;sensor_type;location;lat;lon;timestamp;pressure;altitude;pressure_sealevel;temperature;humidity
44144;BME280;68165;51.920;4.492;2023-04-01T00:00:20;67203.34;;;12.15;100.00
44144;BME280;68165;51.920;4.492;2023-04-01T00:02:46;67198.28;;;12.11;100.00
44144;BME280;68165;51.920;4.492;2023-04-01T00:05:12;67192.72;;;12.06;100.00
44144;BME280;68165;51.920;4.492;2023-04-01T00:07:38;67181.56;;;11.96;100.00
44144;BME280;68165;51.920;4.492;2023-04-01T00:10:06;67175.41;;;11.90;100.00
44144;BME280;68165;51.920;4.492;2023-04-01T00:12:32;67171.50;;;11.86;100.00
44144;BME280;68165;51.920;4.492;2023-04-01T00:14:58;67164.06;;;11.77;100.00
44144;BME280;68165;51.920;4.492;2023-04-01T00:17:23;67165.56;;;11.76;100.00
44144;BME280;68165;51.920;4.492;2023-04-01T00:19:49;67154.91;;;11.74;100.00
44144;BME280;68165;51.920;4.492;2023-04-01T00:22:14;67159.22;;;11.75;100.00
44144;BME280;68165;51.920;4.492;2023-04-01T00:24:40;67150.25;;;11.67;100.00
44144;BME280;68165;51.920;4.492;2023-04-01T00:27:05;67150.66;;;11.65;100.00
44144;BME280;68165;51.920;4.492;2023-04-01T00:29:31;67154.00;;;11.68;100.00
44144;BME280;68165;51.920;4.492;2023-04-01T00:31:57;67148.97;;;11.64;100.00
44144;BME280;68165;51.920;4.492;2023-04-01T00:34:23;67142.81;;;11.58;100.00
44144;BME280;68165;51.920;4.492;2023-04-01T00:36:50;67145.44;;;11.58;100.00
44144;BME280;68165;51.920;4.492;2023-04-01T00:39:17;67132.94;;;11.52;100.00
44144;BME280;68165;51.920;4.492;2023-04-01T00:41:43;67136.13;;;11.52;100.00
44144;BME280;68165;51.920;4.492;2023-04-01T00:44:20;67140.59;;;11.56;100.00
44144;BME280;68165;51.920;4.492;2023-04-01T00:46:46;67137.81;;;11.54;100.00
44144;BME280;68165;51.920;4.492;2023-04-01T00:49:12;67137.63;;;11.51;100.00
44144;BME280;68165;51.920;4.492;2023-04-01T00:51:39;67133.50;;;11.52;100.00
44144;BME280;68165;51.920;4.492;2023-04-01T00:54:06;67138.94;;;11.55;100.00
44144;BME280;68165;51.920;4.492;2023-04-01T00:56:35;67129.59;;;11.49;100.00
44144;BME280;68165;51.920;4.492;2023-04-01T00:59:06;67124.19;;;11.46;100.00
44144;BME280;68165;51.920;4.492;2023-04-01T01:01:34;67132.78;;;11.49;100.00
44144;BME280;68165;51.920;4.492;2023-04-01T01:04:02;67126.09;;;11.43;100.00
44144;BME280;68165;51.920;4.492;2023-04-01T01:06:37;67129.03;;;11.48;100.00
44144;BME280;68165;51.920;4.492;2023-04-01T01:12:14;67143.22;;;11.56;100.00
44144;BME280;68165;51.920;4.492;2023-04-01T01:14:44;67135.56;;;11.52;100.00
44144;BME280;68165;51.920;4.492;2023-04-01T01:22:34;67129.44;;;11.46;100.00
44144;BME280;68165;51.920;4.492;2023-04-01T01:27:41;67121.63;;;11.39;100.00
44144;BME280;68165;51.920;4.492;2023-04-01T01:35:27;67126.09;;;11.43;100.00
44144;BME280;68165;51.920;4.492;2023-04-01T01:37:59;67117.72;;;11.35;100.00
44144;BME280;68165;51.920;4.492;2023-04-01T01:40:27;67112.84;;;11.33;100.00
44144;BME280;68165;51.920;4.492;2023-04-01T01:42:59;67110.63;;;11.31;100.00
44144;BME280;68165;51.920;4.492;2023-04-01T01:45:26;67117.16;;;11.35;100.00
44144;BME280;68165;51.920;4.492;2023-04-01T01:47:54;67113.25;;;11.31;100.00
44144;BME280;68165;51.920;4.492;2023-04-01T01:50:21;67111.19;;;11.32;100.00
44144;BME280;68165;51.920;4.492;2023-04-01T01:52:47;67106.56;;;11.25;100.00
44144;BME280;68165;51.920;4.492;2023-04-01T01:55:29;67112.84;;;11.33;100.00
44144;BME280;68165;51.920;4.492;2023-04-01T01:57:58;67109.34;;;11.28;100.00
44144;BME280;68165;51.920;4.492;2023-04-01T02:00:25;67103.94;;;11.25;100.00
44144;BME280;68165;51.920;4.492;2023-04-01T02:02:51;67105.03;;;11.26;100.00
44144;BME280;68165;51.920;4.492;2023-04-01T02:05:21;67106.16;;;11.27;100.00
44144;BME280;68165;51.920;4.492;2023-04-01T02:08:10;67114.53;;;11.35;100.00
44144;BME280;68165;51.920;4.492;2023-04-01T02:10:42;67100.00;;;11.22;100.00
44144;BME280;68165;51.920;4.492;2023-04-01T02:13:21;67107.84;;;11.29;100.00
44144;BME280;68165;51.920;4.492;2023-04-01T02:15:50;67103.94;;;11.25;100.00
44144;BME280;68165;51.920;4.492;2023-04-01T02:18:18;67098.19;;;11.18;100.00
44144;BME280;68165;51.920;4.492;2023-04-01T02:20:44;67099.31;;;11.19;100.00
44144;BME280;68165;51.920;4.492;2023-04-01T02:23:10;67101.13;;;11.23;100.00
44144;BME280;68165;51.920;4.492;2023-04-01T02:25:37;67106.16;;;11.27;100.00
44144;BME280;68165;51.920;4.492;2023-04-01T02:28:06;67098.91;;;11.21;100.00
44144;BME280;68165;51.920;4.492;2023-04-01T02:30:34;67097.78;;;11.20;100.00
44144;BME280;68165;51.920;4.492;2023-04-01T02:33:00;67096.69;;;11.19;100.00
44144;BME280;68165;51.920;4.492;2023-04-01T02:35:26;67088.31;;;11.11;100.00
44144;BME280;68165;51.920;4.492;2023-04-01T02:37:54;67091.09;;;11.14;100.00
44144;BME280;68165;51.920;4.492;2023-04-01T02:40:20;67095.22;;;11.13;100.00
44144;BME280;68165;51.920;4.492;2023-04-01T02:42:45;67096.69;;;11.19;100.00
44144;BME280;68165;51.920;4.492;2023-04-01T02:45:12;67097.41;;;11.22;100.00
44144;BME280;68165;51.920;4.492;2023-04-01T02:47:37;67101.69;;;11.23;100.00
44144;BME280;68165;51.920;4.492;2023-04-01T02:50:04;67099.44;;;11.21;100.00
44144;BME280;68165;51.920;4.492;2023-04-01T02:52:30;67088.31;;;11.11;100.00
44144;BME280;68165;51.920;4.492;2023-04-01T02:54:57;67092.19;;;11.15;100.00
44144;BME280;68165;51.920;4.492;2023-04-01T02:57:23;67097.44;;;11.15;100.00
44144;BME280;68165;51.920;4.492;2023-04-01T02:59:48;67091.66;;;11.14;100.00
44144;BME280;68165;51.920;4.492;2023-04-01T03:02:15;67087.91;;;11.13;100.00
44144;BME280;68165;51.920;4.492;2023-04-01T03:04:41;67092.75;;;11.15;100.00
44144;BME280;68165;51.920;4.492;2023-04-01T03:07:06;67095.56;;;11.18;100.00
44144;BME280;68165;51.920;4.492;2023-04-01T03:09:32;67099.44;;;11.21;100.00
44144;BME280;68165;51.920;4.492;2023-04-01T03:11:57;67100.41;;;11.20;100.00
44144;BME280;68165;51.920;4.492;2023-04-01T03:14:23;67098.75;;;11.18;100.00
44144;BME280;68165;51.920;4.492;2023-04-01T03:16:48;67109.75;;;11.26;100.00
44144;BME280;68165;51.920;4.492;2023-04-01T03:19:14;67114.19;;;11.30;100.00
44144;BME280;68165;51.920;4.492;2023-04-01T03:21:39;67111.00;;;11.29;100.00
44144;BME280;68165;51.920;4.492;2023-04-01T03:24:05;67111.19;;;11.32;100.00
44144;BME280;68165;51.920;4.492;2023-04-01T03:26:32;67110.47;;;11.29;100.00
44144;BME280;68165;51.920;4.492;2023-04-01T03:28:57;67114.34;;;11.32;100.00
44144;BME280;68165;51.920;4.492;2023-04-01T03:31:23;67112.28;;;11.33;100.00
44144;BME280;68165;51.920;4.492;2023-04-01T03:33:48;67105.59;;;11.27;100.00
44144;BME280;68165;51.920;4.492;2023-04-01T03:36:14;67109.91;;;11.28;100.00
44144;BME280;68165;51.920;4.492;2023-04-01T03:38:41;67111.19;;;11.32;100.00
44144;BME280;68165;51.920;4.492;2023-04-01T03:41:07;67114.53;;;11.35;100.00
44144;BME280;68165;51.920;4.492;2023-04-01T03:43:33;67119.94;;;11.37;100.00
44144;BME280;68165;51.920;4.492;2023-04-01T03:45:58;67119.22;;;11.34;100.00
44144;BME280;68165;51.920;4.492;2023-04-01T03:48:24;67111.19;;;11.32;100.00
44144;BME280;68165;51.920;4.492;2023-04-01T03:50:50;67113.41;;;11.34;100.00
44144;BME280;68165;51.920;4.492;2023-04-01T03:53:16;67114.53;;;11.35;100.00
44144;BME280;68165;51.920;4.492;2023-04-01T03:55:41;67113.41;;;11.34;100.00
44144;BME280;68165;51.920;4.492;2023-04-01T03:58:07;67114.34;;;11.32;100.00
44144;BME280;68165;51.920;4.492;2023-04-01T04:00:33;67115.66;;;11.36;100.00
44144;BME280;68165;51.920;4.492;2023-04-01T04:02:58;67112.28;;;11.33;100.00
44144;BME280;68165;51.920;4.492;2023-04-01T04:05:25;67124.22;;;11.39;100.00
44144;BME280;68165;51.920;4.492;2023-04-01T04:07:51;67112.84;;;11.33;100.00
44144;BME280;68165;51.920;4.492;2023-04-01T04:10:17;67108.56;;;11.32;100.00
44144;BME280;68165;51.920;4.492;2023-04-01T04:12:42;67119.00;;;11.39;100.00
44144;BME280;68165;51.920;4.492;2023-04-01T04:15:08;67113.41;;;11.34;100.00
44144;BME280;68165;51.920;4.492;2023-04-01T04:17:35;67120.84;;;11.43;100.00
44144;BME280;68165;51.920;4.492;2023-04-01T04:20:01;67126.81;;;11.46;100.00
44144;BME280;68165;51.920;4.492;2023-04-01T04:22:26;67109.66;;;11.33;100.00
44144;BME280;68165;51.920;4.492;2023-04-01T04:24:52;67119.88;;;11.44;100.00
44144;BME280;68165;51.920;4.492;2023-04-01T04:27:17;67122.56;;;11.37;100.00
44144;BME280;68165;51.920;4.492;2023-04-01T04:29:43;67117.16;;;11.35;100.00
44144;BME280;68165;51.920;4.492;2023-04-01T04:32:10;67114.91;;;11.33;100.00
44144;BME280;68165;51.920;4.492;2023-04-01T04:34:35;67111.19;;;11.32;100.00
44144;BME280;68165;51.920;4.492;2023-04-01T04:37:01;67116.97;;;11.32;100.00
44144;BME280;68165;51.920;4.492;2023-04-01T04:39:26;67113.41;;;11.34;100.00
44144;BME280;68165;51.920;4.492;2023-04-01T04:41:52;67118.28;;;11.36;100.00
44144;BME280;68165;51.920;4.492;2023-04-01T04:44:17;67112.84;;;11.33;100.00
44144;BME280;68165;51.920;4.492;2023-04-01T04:46:43;67107.13;;;11.26;100.00
44144;BME280;68165;51.920;4.492;2023-04-01T04:49:08;67113.06;;;11.29;100.00
44144;BME280;68165;51.920;4.492;2023-04-01T04:51:34;67108.56;;;11.32;100.00
44144;BME280;68165;51.920;4.492;2023-04-01T04:54:01;67106.72;;;11.28;100.00
44144;BME280;68165;51.920;4.492;2023-04-01T04:56:27;67117.53;;;11.33;100.00
44144;BME280;68165;51.920;4.492;2023-04-01T04:58:52;67113.97;;;11.34;100.00
44144;BME280;68165;51.920;4.492;2023-04-01T05:01:18;67116.44;;;11.32;100.00
44144;BME280;68165;51.920;4.492;2023-04-01T05:03:44;67117.16;;;11.35;100.00
44144;BME280;68165;51.920;4.492;2023-04-01T05:06:11;67114.53;;;11.35;100.00
44144;BME280;68165;51.920;4.492;2023-04-01T05:08:38;67116.78;;;11.37;100.00
44144;BME280;68165;51.920;4.492;2023-04-01T05:11:06;67126.09;;;11.43;100.00
44144;BME280;68165;51.920;4.492;2023-04-01T05:13:34;67133.88;;;11.50;100.00
44144;BME280;68165;51.920;4.492;2023-04-01T05:16:00;67134.63;;;11.53;100.00
44144;BME280;68165;51.920;4.492;2023-04-01T05:18:25;67138.53;;;11.57;100.00
44144;BME280;68165;51.920;4.492;2023-04-01T05:20:53;67140.75;;;11.59;100.00
44144;BME280;68165;51.920;4.492;2023-04-01T05:23:19;67146.19;;;11.61;100.00
44144;BME280;68165;51.920;4.492;2023-04-01T05:25:47;67142.44;;;11.60;100.00
44144;BME280;68165;51.920;4.492;2023-04-01T05:28:12;67147.47;;;11.65;100.00
44144;BME280;68165;51.920;4.492;2023-04-01T05:30:42;67148.03;;;11.65;100.00
44144;BME280;68165;51.920;4.492;2023-04-01T05:33:08;67157.59;;;11.67;100.00
44144;BME280;68165;51.920;4.492;2023-04-01T05:35:34;67147.47;;;11.65;100.00
44144;BME280;68165;51.920;4.492;2023-04-01T05:38:00;67143.16;;;11.63;100.00
44144;BME280;68165;51.920;4.492;2023-04-01T05:40:26;67148.03;;;11.65;100.00
44144;BME280;68165;51.920;4.492;2023-04-01T05:42:52;67148.59;;;11.66;100.00
44144;BME280;68165;51.920;4.492;2023-04-01T05:45:17;67150.25;;;11.67;100.00
44144;BME280;68165;51.920;4.492;2023-04-01T05:47:43;67151.22;;;11.66;100.00
44144;BME280;68165;51.920;4.492;2023-04-01T05:50:09;67153.59;;;11.70;100.00
44144;BME280;68165;51.920;4.492;2023-04-01T05:52:36;67153.03;;;11.70;100.00
44144;BME280;68165;51.920;4.492;2023-04-01T05:55:02;67159.75;;;11.76;100.00
44144;BME280;68165;51.920;4.492;2023-04-01T05:57:28;67162.94;;;11.76;100.00
44144;BME280;68165;51.920;4.492;2023-04-01T05:59:53;67162.00;;;11.78;100.00
44144;BME280;68165;51.920;4.492;2023-04-01T06:02:18;67168.16;;;11.83;100.00
44144;BME280;68165;51.920;4.492;2023-04-01T06:04:44;67168.53;;;11.81;100.00
44144;BME280;68165;51.920;4.492;2023-04-01T06:07:15;67170.38;;;11.85;100.00
44144;BME280;68165;51.920;4.492;2023-04-01T06:09:41;67180.09;;;11.90;100.00
44144;BME280;68165;51.920;4.492;2023-04-01T06:12:31;67176.53;;;11.91;100.00
44144;BME280;68165;51.920;4.492;2023-04-01T06:15:23;67181.94;;;11.94;100.00
44144;BME280;68165;51.920;4.492;2023-04-01T06:26:36;67157.88;;;11.79;100.00
44144;BME280;68165;51.920;4.492;2023-04-01T06:31:58;67167.03;;;11.82;100.00
44144;BME280;68165;51.920;4.492;2023-04-01T06:35:04;67178.59;;;11.91;100.00
44144;BME280;68165;51.920;4.492;2023-04-01T06:37:59;67177.47;;;11.90;100.00
44144;BME280;68165;51.920;4.492;2023-04-01T06:49:12;67194.41;;;12.07;100.00
44144;BME280;68165;51.920;4.492;2023-04-01T06:54:52;67201.09;;;12.13;100.00
44144;BME280;68165;51.920;4.492;2023-04-01T06:59:48;67206.69;;;12.18;100.00
44144;BME280;68165;51.920;4.492;2023-04-01T07:04:43;67208.34;;;12.20;100.00
44144;BME280;68165;51.920;4.492;2023-04-01T07:07:43;67222.88;;;12.33;100.00
44144;BME280;68165;51.920;4.492;2023-04-01T07:13:15;67222.31;;;12.33;100.00
44144;BME280;68165;51.920;4.492;2023-04-01T07:15:49;67234.06;;;12.43;100.00
44144;BME280;68165;51.920;4.492;2023-04-01T07:18:30;67239.06;;;12.48;100.00
44144;BME280;68165;51.920;4.492;2023-04-01T07:20:57;67231.44;;;12.43;100.00
44144;BME280;68165;51.920;4.492;2023-04-01T07:23:44;67244.91;;;12.48;100.00
44144;BME280;68165;51.920;4.492;2023-04-01T07:26:18;67235.19;;;12.44;100.00
44144;BME280;68165;51.920;4.492;2023-04-01T07:28:46;67228.47;;;12.38;100.00
44144;BME280;68165;51.920;4.492;2023-04-01T07:36:39;67224.16;;;12.37;100.00
44144;BME280;68165;51.920;4.492;2023-04-01T07:42:13;67236.13;;;12.43;100.00
44144;BME280;68165;51.920;4.492;2023-04-01T07:50:32;67220.78;;;12.34;100.00
44144;BME280;68165;51.920;4.492;2023-04-01T07:55:51;67217.84;;;12.28;100.00
44144;BME280;68165;51.920;4.492;2023-04-01T08:03:35;67214.50;;;12.25;100.00
44144;BME280;68165;51.920;4.492;2023-04-01T08:16:57;67218.06;;;12.24;100.00
44144;BME280;68165;51.920;4.492;2023-04-01T08:22:26;67216.19;;;12.27;100.00
44144;BME280;68165;51.920;4.492;2023-04-01T08:24:54;67218.97;;;12.30;100.00
44144;BME280;68165;51.920;4.492;2023-04-01T08:27:44;67237.81;;;12.44;100.00
44144;BME280;68165;51.920;4.492;2023-04-01T08:30:24;67231.81;;;12.41;100.00
44144;BME280;68165;51.920;4.492;2023-04-01T08:33:00;67226.22;;;12.36;100.00
44144;BME280;68165;51.920;4.492;2023-04-01T08:35:45;67230.69;;;12.40;100.00
44144;BME280;68165;51.920;4.492;2023-04-01T08:38:24;67233.50;;;12.43;100.00
44144;BME280;68165;51.920;4.492;2023-04-01T08:44:24;67227.34;;;12.37;100.00
44144;BME280;68165;51.920;4.492;2023-04-01T08:52:35;67224.16;;;12.37;100.00
44144;BME280;68165;51.920;4.492;2023-04-01T08:55:56;67240.19;;;12.49;100.00
44144;BME280;68165;51.920;4.492;2023-04-01T09:01:10;67250.41;;;12.60;100.00
44144;BME280;68165;51.920;4.492;2023-04-01T09:03:56;67259.38;;;12.68;100.00
44144;BME280;68165;51.920;4.492;2023-04-01T09:34:51;67233.66;;;12.45;100.00
44144;BME280;68165;51.920;4.492;2023-04-01T09:37:18;67232.38;;;12.42;100.00
44144;BME280;68165;51.920;4.492;2023-04-01T09:39:54;67234.63;;;12.44;100.00
44144;BME280;68165;51.920;4.492;2023-04-01T09:59:55;67215.06;;;12.26;100.00
44144;BME280;68165;51.920;4.492;2023-04-01T10:11:25;67230.69;;;12.40;100.00
44144;BME280;68165;51.920;4.492;2023-04-01T10:14:43;67246.56;;;12.50;100.00
44144;BME280;68165;51.920;4.492;2023-04-01T10:20:30;67259.75;;;12.66;100.00
44144;BME280;68165;51.920;4.492;2023-04-01T10:26:33;67266.06;;;12.75;100.00
44144;BME280;68165;51.920;4.492;2023-04-01T10:40:38;67275.56;;;12.83;100.00
44144;BME280;68165;51.920;4.492;2023-04-01T10:51:09;67260.13;;;12.64;100.00
44144;BME280;68165;51.920;4.492;2023-04-01T10:56:32;67257.50;;;12.64;100.00
44144;BME280;68165;51.920;4.492;2023-04-01T11:13:22;67275.78;;;12.79;100.00
44144;BME280;68165;51.920;4.492;2023-04-01T11:29:16;67252.31;;;12.57;100.00
44144;BME280;68165;51.920;4.492;2023-04-01T11:34:43;67254.41;;;12.57;100.00
44144;BME280;68165;51.920;4.492;2023-04-01T11:37:33;67251.78;;;12.57;100.00
44144;BME280;68165;51.920;4.492;2023-04-01T11:40:27;67248.59;;;12.56;100.00
44144;BME280;68165;51.920;4.492;2023-04-01T11:46:11;67245.94;;;12.56;100.00
44144;BME280;68165;51.920;4.492;2023-04-01T11:49:04;67251.22;;;12.56;100.00
44144;BME280;68165;51.920;4.492;2023-04-01T12:11:10;67285.78;;;12.95;100.00
44144;BME280;68165;51.920;4.492;2023-04-01T12:13:40;67308.22;;;13.08;100.00
44144;BME280;68165;51.920;4.492;2023-04-01T12:16:34;67320.13;;;13.21;100.00
44144;BME280;68165;51.920;4.492;2023-04-01T12:19:15;67327.41;;;13.28;100.00
44144;BME280;68165;51.920;4.492;2023-04-01T12:37:41;67282.66;;;12.87;100.00
44144;BME280;68165;51.920;4.492;2023-04-01T14:17:01;67375.09;;;13.73;100.00
44144;BME280;68165;51.920;4.492;2023-04-01T14:22:23;67375.47;;;13.71;100.00
44144;BME280;68165;51.920;4.492;2023-04-01T14:28:16;67382.19;;;13.77;100.00
44144;BME280;68165;51.920;4.492;2023-04-01T14:36:31;67384.59;;;13.82;100.00
44144;BME280;68165;51.920;4.492;2023-04-01T14:39:26;67386.13;;;13.81;100.00
44144;BME280;68165;51.920;4.492;2023-04-01T14:50:17;67365.25;;;13.60;100.00
44144;BME280;68165;51.920;4.492;2023-04-01T14:53:11;67372.13;;;13.68;100.00
44144;BME280;68165;51.920;4.492;2023-04-01T14:58:15;67367.50;;;13.62;100.00
44144;BME280;68165;51.920;4.492;2023-04-01T15:00:42;67353.13;;;13.51;100.00
44144;BME280;68165;51.920;4.492;2023-04-01T15:03:20;67341.78;;;13.38;100.00
44144;BME280;68165;51.920;4.492;2023-04-01T15:14:26;67291.03;;;12.95;100.00
44144;BME280;68165;51.920;4.492;2023-04-01T15:30:33;67281.38;;;12.84;100.00
44144;BME280;68165;51.920;4.492;2023-04-01T15:35:39;67260.47;;;12.69;100.00
44144;BME280;68165;51.920;4.492;2023-04-01T21:44:20;67102.25;;;11.24;100.00
44144;BME280;68165;51.920;4.492;2023-04-01T21:47:01;67097.06;;;11.17;100.00
44144;BME280;68165;51.920;4.492;2023-04-01T22:07:34;67085.50;;;11.09;100.00
44144;BME280;68165;51.920;4.492;2023-04-01T22:15:30;67081.59;;;11.05;100.00
44144;BME280;68165;51.920;4.492;2023-04-01T22:25:32;67074.91;;;10.99;100.00
44144;BME280;68165;51.920;4.492;2023-04-01T22:30:30;67053.88;;;10.82;100.00
44144;BME280;68165;51.920;4.492;2023-04-01T22:33:08;67061.91;;;10.85;100.00
44144;BME280;68165;51.920;4.492;2023-04-01T22:35:39;67057.44;;;10.81;100.00
44144;BME280;68165;51.920;4.492;2023-04-01T22:40:49;67049.81;;;10.76;100.00
44144;BME280;68165;51.920;4.492;2023-04-01T22:48:25;67049.81;;;10.76;100.00
44144;BME280;68165;51.920;4.492;2023-04-01T22:56:05;67045.34;;;10.72;100.00
44144;BME280;68165;51.920;4.492;2023-04-01T22:58:34;67044.78;;;10.72;100.00
44144;BME280;68165;51.920;4.492;2023-04-01T23:01:05;67042.00;;;10.69;100.00
44144;BME280;68165;51.920;4.492;2023-04-01T23:03:36;67042.38;;;10.67;100.00
44144;BME280;68165;51.920;4.492;2023-04-01T23:06:05;67046.13;;;10.68;100.00
44144;BME280;68165;51.920;4.492;2023-04-01T23:08:50;67039.75;;;10.67;100.00
44144;BME280;68165;51.920;4.492;2023-04-01T23:14:02;67037.19;;;10.60;100.00
44144;BME280;68165;51.920;4.492;2023-04-01T23:16:36;67033.84;;;10.57;100.00
